Timeline UpdatesTrip UpdatesNews PostsPvt PostsTravel TipsAdmin PostsConv PostsFollowed PostsChat RequestsBlog PostsPNR Posts

Disclaimer
Search
 
 
Thu Oct 2, 2014 22:01:21 ISTHomeTrainsΣChainsAtlasPNRForumGalleryNewsFAQTripsMembersLoginFeedback
No Recent News for this Train
Other Trains in the News **new
Latest...
.
Mon Sep 08, 2014 (11:27PM)
⇐ Return Journey: Train# 17480

17479/Puri-Tirupati Express

Time-Table HAS CHANGED.
Sep 08 (11:27PM)
Change Departure Station:
Change Arrival Station:
Post a Train Travel TipPost a Train Travel Tip **new
Post a Comment/Question/Picture/VideoPost a Comment/Question/Picture/Video
Inaugural Run
Wed Jan 01, 1992
Pantry/Catering
✕ NO Pantry Car
✕ NO Catering
Loco/Rake Reversals
KUR/Khurda Road Junction (7); VSKP/Visakhapatnam Junction (8);
RSA - Rake Sharing
Rake/Coach Composition
Entry# 194081 Author: νιηαy దత్త 1:; SLRD(For Disabled + Ladies Only) - UR - UR - S1 - S2 - S3 - S4 - S5 - B1 - UR - UR - UR - SLR(Ladies Only)
Loco
Official Loco:- PURI/KUR - VSKP:- WAM-4 VSKP - RJY:- WAM-4/WAP-1 RJY - BZA:-...
Read more...
WDM-2A/WDM-3A BZA - TPTY:- WAM-4/WAP-1
News    PNR    Forum    Time-Table    Availability    Fare Chart    Map    Arr/Dep History    Trips    Gallery    ΣChains    X/O    Timeline    
Travel Time: 2h 35m    7 halts    Distance: 115 km    Avg Speed: 44 km/hr
Type: Mail/Express
Zone: SCR/South Central
Departs @ 12:25 (Avg 2m late)
Platform# 9
SM WTF 
Puri/PURI 
Arrives @ 15:00 (Avg 16m late)
Platform# ???
SM WTF 
Balugaon/BALU 

7 halts. 22 intermediate Stations between Puri and Balugaon

Show ALL intermediate Stations  Show Old Time-Table

#CodeStation NameX/OArrivesAvgDepartsAvgHaltPFDay#KmSpeedElevZoneAddress
1PURIPuri (5)»  -12:25+2910.04912mECoRPuri, Odisha
2SILSakhi Gopal (3)  12:45+1012:46+111m--116.44210mECoRPuri, Odisha
3KURKhurda Road Junction (7)X13:25+513:50+1025m--143.97925mECoRKhordha, Odisha
4NKPNirakarpurX  14:11 14:10+1614:12+161 2m--170.37121mECoRNirakarpur, Odisha
5BSDPBhusandpurX  14:20 14:18+1514:21 14:20+161 2m--177.47420mECoRBhushandapur, Odisha
6KAPGKalupara GhatX  14:30 14:28+1714:31 14:30+181 2m--187.36710mECoRChandeswar, Odisha
7KUUKuhuri  14:38 14:36+1714:39 14:38+171 2m--194.06826mECoRKhordha, Odisha
8GNGDGangadharpur  14:47 14:45+1814:48 14:47+191 2m--1102.06022mECoRKhordha, Odisha
9BALUBalugaon (3)•X  15:01 15:00+1615:02+171 2m--1115.04811mECoR752030, Odisha
10CLKAChilka  15:09 15:11+1915:10 15:13+191 2m--1122.27525mECoRBarkul, Odisha
11KITKhallikot (3)X  15:18 15:21+1915:19 15:23+201 2m--1132.27513mECoRKhallikot, Odisha
12RBARambhaX  15:29 15:32+2015:30 15:34+211 2m--1143.48614mECoRGanjam District, Odisha
13GAMGanjamX  15:43 15:46+2215:44 15:48+231 2m--1160.7678mECoRGanjam, Odisha
14CAPChatrapur  15:54 15:56+2215:55 15:58+241 2m--1169.65836mECoRChatrapur, Odisha
15BAMBrahmapur (3)  16:15 16:20+2116:20 16:25+235m31191.07327mECoRBerhampur, Odisha
16IPMIchchapuram  16:42 16:45+3216:43 16:47+331 2m--1215.58321mECoRIchchapuram, Andhra Pradesh
17SPTSompeta (4)X  17:01 17:00+1417:02+201 2m--1233.57148mECoRKanchili, Andhra Pradesh
18MMSMandasa Road  17:15 17:18+2517:16 17:20+321 2m11252.31238mECoRSrikakulam, Andhra Pradesh
19PSAPalasa (3)X  18:25+018:30+25m--1265.47431mECoRKasibugga, Andhra Pradesh
20PUNPundi  18:41 18:40+818:42+91 2m--1277.66838mECoRSrikakulam, Andhra Pradesh
21NWPNaupada Junction  18:55 18:54+818:56+101 2m--1291.18313mECoRNuapada . ph.no. 08945-249728, Andhra Pradesh
22KBMKotabommaliX  19:07 19:06+919:08+111 2m--1304.98213mECoRSrikakulam, Andhra Pradesh
23TIUTilaru (4)  19:19 19:18+1119:20+141 2m--1318.65950mECoRSrikakulam District, Andhra Pradesh
24CHESrikakulam Road (4)X  19:40+1419:45+155m--1338.44834mECoRsrikakulam road ph .no. 08942-287222, Andhra Pradesh
25DUSIDusi  19:54 19:53+1419:55+161 2m--1344.86628mECoRSrikakulam, Andhra Pradesh
26PDUPonduru  20:04 20:03+1620:05+201 2m--1353.77539mECoRSrikakulam, Andhra Pradesh
27SGDMSigadam  20:14 20:13+1920:15+201 2m--1363.78067mECoRSrikakulam, Andhra Pradesh
28CPPChipurupalleX  20:26 20:25+2020:27+241 2m--1377.04999mECoRCheepurupalli, Andhra Pradesh
29GVIGarividiX  20:36 20:35+2320:37+261 2m--1383.62892mECoRGarividi Railway Station Rd, Andhra Pradesh
30VZMVizianagaram Junction (5)  21:30+421:35+75m--1407.97063mECoRVizianagaram, Andhra Pradesh
31KTVKottavalasa Junction (5)O  22:06 22:05+1222:07+131 2m--1442.96858mECoRVizianagaram District, Andhra Pradesh
32SCMSimhachalam (2)XO  22:24 22:23-22:25-1 2m--1460.9927mECoRVisakhapatnam, Andhra Pradesh
33VSKPVisakhapatnam Junction (8)X23:20+023:40+420m21469.03511mECoRVishakhapatnam 530001, Andhra Pradesh
34DVDDuvvada (4)X  00:09 00:08+700:10+101 2m12485.45346mECoRVishakhapatnam District, Andhra Pradesh
35AKPAnakapalle (3)  00:28+1800:29+191m22501.45930mSCRAnakapalle ph.no . 08924-221698, Andhra Pradesh
36YLMElamanchili (2)  00:53+2100:54+221m--2525.110423mSCRVisakhapatnam District, Andhra Pradesh
37TUNITuni (2)  01:17+2701:18+291m12565.17124mSCRTuni ph.no. 08854-252172, Andhra Pradesh
38ANVAnnavaram (3)X  01:32+3201:33+321m12581.88327mSCREast Godavari District, Andhra Pradesh
39PAPPithapuram (2)X  01:51+3501:52+361m--2606.65622mSCREast Godavari District, Andhra Pradesh
40SLOSamalkot Junction (3)X  02:05+3502:06+351m32618.78418mSCRSamalkot, Andhra Pradesh
41APTAnaparti (3)X  02:25+4102:26+411m--2645.24521mSCREast Godavari District, Andhra Pradesh
42DWPDwarapudi (3)  02:31+4202:32+441m--2648.93120mSCREast Godavari District, Andhra Pradesh
43RJYRajahmundry (3)X03:10+3003:25+3415m12668.83623mSCRRajahmundry ph.no. 0883-2420541, Andhra Pradesh
44KVRKovvur (3)  03:38+4103:39+421m32676.74325mSCRWest Godavari, Andhra Pradesh
45NDDNidadavolu Junction (3)  03:59+4104:00+421m22691.05420mSCRNidadavolu jtn ph.no. 08813-210325, Andhra Pradesh
46TNKUTanuku (2)  04:19+4904:20+501m--2708.14512mSCR131, Andhra Pradesh
47ALAttili (1)  04:34+4904:35+501m12718.74614mSCRWest Godavari, Andhra Pradesh
48BVRTBhimavaram Town (2)X  05:01+4805:02+501m12738.5488mSCRBhimavaram, Andhra Pradesh
49AKVDAkividu (3)X  05:24+1:0005:25+1:041m--2756.2485mSCRCoast Andhra, Andhra Pradesh
50KKLRKaikaluru (2)X  05:46+1:0505:47+1:071m--2772.8348mSCRKaikalur, Andhra Pradesh
51GDVGudivada Junction (3)X  06:39+1:0106:40+1:021m--2802.13211mSCRKrishna District, Andhra Pradesh
52BZAVijayawada Junction (10)X  08:00+4008:20+3920m12845.35624mSCRVijayawada 520001, Andhra Pradesh
53DIGDuggirala (3)  08:43+1:0108:44+1:021m--2866.96516mSCRDuggirala, Andhra Pradesh
54TELTenali Junction (5)  08:53+5808:54+1:011m32876.66616mSCRTel: 08644-227834, Andhra Pradesh
55NDONidubrolu (3)X  09:14+1:0709:15+1:101m--2898.6659mSCRNidubrolu, Andhra Pradesh
56BPPBapatla (3)  09:34+1:0609:35+1:071m22919.27510mSCRBapatla, Andhra Pradesh
57CLXChirala (4)  09:47+1:1009:48+1:111m--2934.2528mSCRChirala, Andhra Pradesh
58VTMVetapalem (3)  09:57+1:1409:58+1:171m--2942.1688mSCRVetapalem, Andhra Pradesh
59CJMChinnaganjam (3)X  10:09+1:1710:10+1:201m--2954.5659mSCRChinna Ganjam, Andhra Pradesh
60ANBAmmanabrolu (3)  10:23+1:2010:24+1:211m--2968.74516mSCRAmmanabrolu, Andhra Pradesh
61OGLOngole (3)XO  10:44+1:0610:45+1:081m32983.66212mSCROngole, Andhra Pradesh
62TNRTanguturu (3)  11:03+1:1911:04+1:191m--21002.27210mSCRTanguturu, Andhra Pradesh
63SKMSingarayakonda (2)X  11:12+1:1411:13+1:151m221011.86326mSCRSingarayakonda, Andhra Pradesh
64KVZKavali (4)XO  11:49+2:0811:50+2:081m221049.67021mSCRKavali, Andhra Pradesh
65BTTRBitragunta (2)  12:04-12:05-1m221066.07615mSCRBitragunta, Andhra Pradesh
66NLRNellore (4)X  12:32+3212:33+321m221100.32721mSCRNellore, Andhra Pradesh
67GDRGudur Junction (3)X  14:00+4014:05+385m121138.86819mSCRGudur, Andhra Pradesh
68VDDVendodu (2)X  14:22+5214:23+531m--21158.07655mSCRNellore, Andhra Pradesh
69VKIVenkatagiri (3)X  14:36+5714:37+591m221174.66477mSCRNellore District, Andhra Pradesh
70KHTSri Kalahasti (2)  15:01 15:00+5415:02+541 2m121199.03068mSCRChittoor District, Andhra Pradesh
71RURenigunta Junction (5)  15:48+4715:50+482m--21222.213113mSCRChittoor District, Andhra Pradesh
72TPTYTirupati Main (5)  16:35+18-421232.1-150mSCRChittoor Distt, Andhra Pradesh
Scroll to Top
Scroll to Bottom